Terminal Aerodrome Forecast
Issued by NWS

Home | Current Version | Previous Version | Text Only | Print | Product List | Glossary On
Versions: 1 2 3 4 5 6 7 8 9 10 11 12 13 14 15 16 17 18 19 20 21 22 23 24 25 26 27
000
FTUS43 KSGF 261403 AAB
TAFJLN
TAF AMD
KJLN 261403Z 2614/2712 20004KT 6SM HZ VCTS BKN018 BKN025 OVC060CB
     FM261800 18013G23KT P6SM SCT025 BKN050
     FM262300 18012KT P6SM SCT025 BKN200
     FM270100 18012KT P6SM VCSH SCT025 BKN050=

USA.gov is the U.S. government's official web portal to all federal, state and local government web resources and services.